Apiliotis — SYVY — position and weather

sailwx.info

Track history (hours):
 
Tides and Currents Weather Stations Pressure Air Temp Water Temp Dewpoint Dewpoint Depression Visibility Wind Speed Wind Dir Waves Ship Positions

Apiliotis

Last reported at 2015-Mar-05 18:22 UTC. Time now 2015-Mar-05 18:50 UTC.
Position N 37°55' E 023°05'.

Length 79 m; draft 4.5 m.

Type: Ship. MMSI: 240438000.

Date/timePositionNaut miles runAvg speedWind from/ knotsBaromVisibWave heightAir tempDewpointWater temp
2015-Mar-05 18:22N 37°55' E 023°05'0 0.0
2015-Mar-05 17:30N 37°55' E 023°05'0 0.0
2015-Mar-05 16:28N 37°55' E 023°05'0 0.0
2015-Mar-05 15:31N 37°55' E 023°05'1 0.4
2015-Mar-05 13:28N 37°54' E 023°05'910.0
2015-Mar-05 12:32N 37°56' E 023°16'9 8.9
2015-Mar-05 11:33N 37°60' E 023°26'6 5.5
2015-Mar-05 10:33N 38°02' E 023°32'0 0.0
2015-Mar-05 09:33N 38°02' E 023°32'0 0.0
2015-Mar-05 08:33N 38°02' E 023°32'0 0.0
2015-Mar-05 07:33N 38°02' E 023°32'0 0.0
2015-Mar-05 06:33N 38°02' E 023°32'1 0.7
2015-Mar-05 05:33N 38°02' E 023°32'0 0.0
2015-Mar-05 04:33N 38°02' E 023°32'0 0.0
2015-Mar-05 03:33N 38°02' E 023°32'0 0.0
2015-Mar-05 02:33N 38°02' E 023°32'0 0.0
2015-Mar-05 01:33N 38°02' E 023°32'0 0.0
2015-Mar-05 00:33N 38°02' E 023°32'0 0.0
2015-Mar-04 23:33N 38°02' E 023°32'0 0.0
2015-Mar-04 22:33N 38°02' E 023°32'0 0.0
2015-Mar-04 21:33N 38°02' E 023°32'0 0.0
2015-Mar-04 20:33N 38°02' E 023°32'0 0.0
2015-Mar-04 19:33N 38°02' E 023°32'0 0.0
2015-Mar-04 18:33N 38°02' E 023°32'0 0.0
2015-Mar-04 17:33N 38°02' E 023°32'0 0.0
2015-Mar-04 16:33N 38°02' E 023°32'0 0.0
2015-Mar-04 15:33N 38°02' E 023°32'0 0.0
2015-Mar-04 14:33N 38°02' E 023°32'0 0.0
2015-Mar-04 13:33N 38°02' E 023°32'0 0.0
2015-Mar-04 12:33N 38°02' E 023°32'0 0.0
2015-Mar-04 11:33N 38°02' E 023°32'0 0.0
2015-Mar-04 10:33N 38°02' E 023°32'0 0.0
2015-Mar-04 09:33N 38°02' E 023°32'0 0.0
2015-Mar-04 08:33N 38°02' E 023°32'0 0.0
2015-Mar-04 07:33N 38°02' E 023°32'0 0.0
2015-Mar-04 06:33N 38°02' E 023°32'0 0.0
2015-Mar-04 05:33N 38°02' E 023°32'0 0.0
2015-Mar-04 04:33N 38°02' E 023°32'0 0.0
2015-Mar-04 03:33N 38°02' E 023°32'0 0.0
2015-Mar-04 02:33N 38°02' E 023°32'0 0.0
2015-Mar-04 01:33N 38°02' E 023°32'0 0.0
2015-Mar-04 00:33N 38°02' E 023°32'0 0.0
2015-Mar-03 23:33N 38°02' E 023°32'0 0.0
2015-Mar-03 22:33N 38°02' E 023°32'0 0.1
2015-Mar-03 21:33N 38°02' E 023°32'0 0.0
2015-Mar-03 20:33N 38°02' E 023°32'0 0.0
2015-Mar-03 19:33N 38°02' E 023°32'0 0.0
2015-Mar-03 18:33N 38°02' E 023°32'0 0.0
2015-Mar-03 17:33N 38°02' E 023°32'0 0.0
2015-Mar-03 16:33N 38°02' E 023°32'0 0.1
2015-Mar-03 15:33N 38°02' E 023°32'0 0.0
2015-Mar-03 14:33N 38°02' E 023°32'0 0.0
2015-Mar-03 13:33N 38°02' E 023°32'0 0.0
2015-Mar-03 12:33N 38°02' E 023°32'0 0.0
2015-Mar-03 11:33N 38°02' E 023°32'0 0.0
2015-Mar-03 10:33N 38°02' E 023°32'0 0.0
2015-Mar-03 09:33N 38°02' E 023°32'0 0.0
2015-Mar-03 08:33N 38°02' E 023°32'0 0.0
2015-Mar-03 07:33N 38°02' E 023°32'0 0.1
2015-Mar-03 06:34N 38°02' E 023°32'2 2.4
2015-Mar-03 05:33N 37°59' E 023°33'8 7.9
2015-Mar-03 04:33N 37°53' E 023°38'1010.2
2015-Mar-03 03:33N 37°43' E 023°44'1210.5
2015-Mar-03 02:26N 37°35' E 023°54'  
2015-Feb-26 13:33N 36°47' E 025°40'10 9.8
2015-Feb-26 12:34N 36°53' E 025°49'9 2.9
2015-Feb-26 09:32N 36°57' E 025°59'  
2015-Feb-24 03:09N 37°37' E 025°54'7 9.6
2015-Feb-24 02:24N 37°35' E 025°45'8 9.8
2015-Feb-24 01:33N 37°33' E 025°35'9 9.5
2015-Feb-24 00:33N 37°31' E 025°23'5 5.4
2015-Feb-23 23:33N 37°27' E 025°19'0 0.0
2015-Feb-23 22:33N 37°27' E 025°19'0 0.0
2015-Feb-23 21:33N 37°27' E 025°19'0 0.1
2015-Feb-23 20:33N 37°27' E 025°19'0 0.1
2015-Feb-23 19:33N 37°27' E 025°19'0 0.1
2015-Feb-23 18:33N 37°27' E 025°19'  
Track history (hours):
 
Tides and Currents Weather Stations Pressure Air Temp Water Temp Dewpoint Dewpoint Depression Visibility Wind Speed Wind Dir Waves Ship Positions

Apiliotis

Last reported at 2015-Mar-05 18:22 UTC. Time now 2015-Mar-05 18:50 UTC.
Position N 37°55' E 023°05'.

Length 79 m; draft 4.5 m.

Type: Ship. MMSI: 240438000.

Date/timePositionNaut miles runAvg speedWind from/ knotsBaromVisibWave heightAir tempDewpointWater temp
2015-Mar-05 18:22N 37°55' E 023°05'0 0.0
2015-Mar-05 17:30N 37°55' E 023°05'0 0.0
2015-Mar-05 16:28N 37°55' E 023°05'0 0.0
2015-Mar-05 15:31N 37°55' E 023°05'1 0.4
2015-Mar-05 13:28N 37°54' E 023°05'910.0
2015-Mar-05 12:32N 37°56' E 023°16'9 8.9
2015-Mar-05 11:33N 37°60' E 023°26'6 5.5
2015-Mar-05 10:33N 38°02' E 023°32'0 0.0
2015-Mar-05 09:33N 38°02' E 023°32'0 0.0
2015-Mar-05 08:33N 38°02' E 023°32'0 0.0
2015-Mar-05 07:33N 38°02' E 023°32'0 0.0
2015-Mar-05 06:33N 38°02' E 023°32'1 0.7
2015-Mar-05 05:33N 38°02' E 023°32'0 0.0
2015-Mar-05 04:33N 38°02' E 023°32'0 0.0
2015-Mar-05 03:33N 38°02' E 023°32'0 0.0
2015-Mar-05 02:33N 38°02' E 023°32'0 0.0
2015-Mar-05 01:33N 38°02' E 023°32'0 0.0
2015-Mar-05 00:33N 38°02' E 023°32'0 0.0
2015-Mar-04 23:33N 38°02' E 023°32'0 0.0
2015-Mar-04 22:33N 38°02' E 023°32'0 0.0
2015-Mar-04 21:33N 38°02' E 023°32'0 0.0
2015-Mar-04 20:33N 38°02' E 023°32'0 0.0
2015-Mar-04 19:33N 38°02' E 023°32'0 0.0
2015-Mar-04 18:33N 38°02' E 023°32'0 0.0
2015-Mar-04 17:33N 38°02' E 023°32'0 0.0
2015-Mar-04 16:33N 38°02' E 023°32'0 0.0
2015-Mar-04 15:33N 38°02' E 023°32'0 0.0
2015-Mar-04 14:33N 38°02' E 023°32'0 0.0
2015-Mar-04 13:33N 38°02' E 023°32'0 0.0
2015-Mar-04 12:33N 38°02' E 023°32'0 0.0
2015-Mar-04 11:33N 38°02' E 023°32'0 0.0
2015-Mar-04 10:33N 38°02' E 023°32'0 0.0
2015-Mar-04 09:33N 38°02' E 023°32'0 0.0
2015-Mar-04 08:33N 38°02' E 023°32'0 0.0
2015-Mar-04 07:33N 38°02' E 023°32'0 0.0
2015-Mar-04 06:33N 38°02' E 023°32'0 0.0
2015-Mar-04 05:33N 38°02' E 023°32'0 0.0
2015-Mar-04 04:33N 38°02' E 023°32'0 0.0
2015-Mar-04 03:33N 38°02' E 023°32'0 0.0
2015-Mar-04 02:33N 38°02' E 023°32'0 0.0
2015-Mar-04 01:33N 38°02' E 023°32'0 0.0
2015-Mar-04 00:33N 38°02' E 023°32'0 0.0
2015-Mar-03 23:33N 38°02' E 023°32'0 0.0
2015-Mar-03 22:33N 38°02' E 023°32'0 0.1
2015-Mar-03 21:33N 38°02' E 023°32'0 0.0
2015-Mar-03 20:33N 38°02' E 023°32'0 0.0
2015-Mar-03 19:33N 38°02' E 023°32'0 0.0
2015-Mar-03 18:33N 38°02' E 023°32'0 0.0
2015-Mar-03 17:33N 38°02' E 023°32'0 0.0
2015-Mar-03 16:33N 38°02' E 023°32'0 0.1
2015-Mar-03 15:33N 38°02' E 023°32'0 0.0
2015-Mar-03 14:33N 38°02' E 023°32'0 0.0
2015-Mar-03 13:33N 38°02' E 023°32'0 0.0
2015-Mar-03 12:33N 38°02' E 023°32'0 0.0
2015-Mar-03 11:33N 38°02' E 023°32'0 0.0
2015-Mar-03 10:33N 38°02' E 023°32'0 0.0
2015-Mar-03 09:33N 38°02' E 023°32'0 0.0
2015-Mar-03 08:33N 38°02' E 023°32'0 0.0
2015-Mar-03 07:33N 38°02' E 023°32'0 0.1
2015-Mar-03 06:34N 38°02' E 023°32'2 2.4
2015-Mar-03 05:33N 37°59' E 023°33'8 7.9
2015-Mar-03 04:33N 37°53' E 023°38'1010.2
2015-Mar-03 03:33N 37°43' E 023°44'1210.5
2015-Mar-03 02:26N 37°35' E 023°54'  
2015-Feb-26 13:33N 36°47' E 025°40'10 9.8
2015-Feb-26 12:34N 36°53' E 025°49'9 2.9
2015-Feb-26 09:32N 36°57' E 025°59'  
2015-Feb-24 03:09N 37°37' E 025°54'7 9.6
2015-Feb-24 02:24N 37°35' E 025°45'8 9.8
2015-Feb-24 01:33N 37°33' E 025°35'9 9.5
2015-Feb-24 00:33N 37°31' E 025°23'5 5.4
2015-Feb-23 23:33N 37°27' E 025°19'0 0.0
2015-Feb-23 22:33N 37°27' E 025°19'0 0.0
2015-Feb-23 21:33N 37°27' E 025°19'0 0.1
2015-Feb-23 20:33N 37°27' E 025°19'0 0.1
2015-Feb-23 19:33N 37°27' E 025°19'0 0.1
2015-Feb-23 18:33N 37°27' E 025°19'  

Dump ship's entire track history